sensor_id;sensor_type;location;lat;lon;timestamp;P1;durP1;ratioP1;P2;durP2;ratioP2
9106;SDS011;4589;48.690;8.952;2023-02-21T00:02:11;6.03;;;3.27;;
9106;SDS011;4589;48.690;8.952;2023-02-21T00:04:56;7.13;;;5.93;;
9106;SDS011;4589;48.690;8.952;2023-02-21T00:07:40;4.87;;;3.47;;
9106;SDS011;4589;48.690;8.952;2023-02-21T00:10:24;6.47;;;4.03;;
9106;SDS011;4589;48.690;8.952;2023-02-21T00:13:08;7.40;;;3.60;;
9106;SDS011;4589;48.690;8.952;2023-02-21T00:15:53;5.30;;;3.90;;
9106;SDS011;4589;48.690;8.952;2023-02-21T00:18:38;6.80;;;4.10;;
9106;SDS011;4589;48.690;8.952;2023-02-21T00:21:22;4.93;;;3.90;;
9106;SDS011;4589;48.690;8.952;2023-02-21T00:24:11;4.50;;;3.70;;
9106;SDS011;4589;48.690;8.952;2023-02-21T00:26:56;6.30;;;4.23;;
9106;SDS011;4589;48.690;8.952;2023-02-21T00:29:40;8.17;;;4.07;;
9106;SDS011;4589;48.690;8.952;2023-02-21T00:32:24;6.00;;;4.20;;
9106;SDS011;4589;48.690;8.952;2023-02-21T00:35:08;4.57;;;4.17;;
9106;SDS011;4589;48.690;8.952;2023-02-21T00:37:52;8.55;;;4.68;;
9106;SDS011;4589;48.690;8.952;2023-02-21T00:40:37;6.65;;;4.43;;
9106;SDS011;4589;48.690;8.952;2023-02-21T00:43:32;10.80;;;4.70;;
9106;SDS011;4589;48.690;8.952;2023-02-21T00:46:17;8.70;;;5.85;;
9106;SDS011;4589;48.690;8.952;2023-02-21T00:49:02;13.50;;;7.75;;
9106;SDS011;4589;48.690;8.952;2023-02-21T00:51:47;7.85;;;6.75;;
9106;SDS011;4589;48.690;8.952;2023-02-21T00:54:32;8.13;;;7.32;;
9106;SDS011;4589;48.690;8.952;2023-02-21T00:57:17;7.32;;;5.30;;
9106;SDS011;4589;48.690;8.952;2023-02-21T01:00:01;11.85;;;6.15;;
9106;SDS011;4589;48.690;8.952;2023-02-21T01:02:45;7.20;;;5.80;;
9106;SDS011;4589;48.690;8.952;2023-02-21T01:05:30;10.75;;;5.18;;
9106;SDS011;4589;48.690;8.952;2023-02-21T01:08:14;8.93;;;4.93;;
9106;SDS011;4589;48.690;8.952;2023-02-21T01:10:58;7.28;;;4.80;;
9106;SDS011;4589;48.690;8.952;2023-02-21T01:13:43;5.22;;;4.63;;
9106;SDS011;4589;48.690;8.952;2023-02-21T01:16:27;5.70;;;4.65;;
9106;SDS011;4589;48.690;8.952;2023-02-21T01:19:12;7.00;;;5.20;;
9106;SDS011;4589;48.690;8.952;2023-02-21T01:21:57;9.32;;;4.80;;
9106;SDS011;4589;48.690;8.952;2023-02-21T01:24:41;7.97;;;5.13;;
9106;SDS011;4589;48.690;8.952;2023-02-21T01:27:25;5.35;;;4.40;;
9106;SDS011;4589;48.690;8.952;2023-02-21T01:30:09;5.82;;;4.00;;
9106;SDS011;4589;48.690;8.952;2023-02-21T01:32:54;6.13;;;3.85;;
9106;SDS011;4589;48.690;8.952;2023-02-21T01:35:38;6.25;;;3.90;;
9106;SDS011;4589;48.690;8.952;2023-02-21T01:38:22;4.78;;;3.95;;
9106;SDS011;4589;48.690;8.952;2023-02-21T01:41:06;5.15;;;3.90;;
9106;SDS011;4589;48.690;8.952;2023-02-21T01:43:58;6.13;;;3.40;;
9106;SDS011;4589;48.690;8.952;2023-02-21T01:46:47;5.40;;;3.55;;
9106;SDS011;4589;48.690;8.952;2023-02-21T01:49:32;4.72;;;3.80;;
9106;SDS011;4589;48.690;8.952;2023-02-21T01:52:18;4.63;;;3.80;;
9106;SDS011;4589;48.690;8.952;2023-02-21T01:55:03;7.35;;;4.30;;
9106;SDS011;4589;48.690;8.952;2023-02-21T01:57:48;4.60;;;4.00;;
9106;SDS011;4589;48.690;8.952;2023-02-21T02:00:33;7.82;;;4.22;;
9106;SDS011;4589;48.690;8.952;2023-02-21T02:03:18;5.78;;;3.92;;
9106;SDS011;4589;48.690;8.952;2023-02-21T02:06:04;5.55;;;3.60;;
9106;SDS011;4589;48.690;8.952;2023-02-21T02:08:51;10.50;;;3.92;;
9106;SDS011;4589;48.690;8.952;2023-02-21T02:11:45;4.65;;;4.10;;
9106;SDS011;4589;48.690;8.952;2023-02-21T02:22:59;6.07;;;4.13;;
9106;SDS011;4589;48.690;8.952;2023-02-21T02:40:11;7.00;;;4.20;;
9106;SDS011;4589;48.690;8.952;2023-02-21T02:42:46;6.43;;;4.68;;
9106;SDS011;4589;48.690;8.952;2023-02-21T02:45:19;3.97;;;3.42;;
9106;SDS011;4589;48.690;8.952;2023-02-21T02:47:55;6.75;;;4.00;;
9106;SDS011;4589;48.690;8.952;2023-02-21T02:50:23;5.75;;;4.45;;
9106;SDS011;4589;48.690;8.952;2023-02-21T02:52:52;7.78;;;4.18;;
9106;SDS011;4589;48.690;8.952;2023-02-21T02:55:24;7.97;;;4.38;;
9106;SDS011;4589;48.690;8.952;2023-02-21T02:58:06;9.75;;;5.65;;
9106;SDS011;4589;48.690;8.952;2023-02-21T03:00:33;5.72;;;3.88;;
9106;SDS011;4589;48.690;8.952;2023-02-21T03:03:24;5.13;;;3.78;;
9106;SDS011;4589;48.690;8.952;2023-02-21T03:06:12;5.15;;;3.92;;
9106;SDS011;4589;48.690;8.952;2023-02-21T03:14:40;3.40;;;2.95;;
9106;SDS011;4589;48.690;8.952;2023-02-21T03:17:28;4.20;;;3.60;;
9106;SDS011;4589;48.690;8.952;2023-02-21T03:19:56;3.50;;;2.60;;
9106;SDS011;4589;48.690;8.952;2023-02-21T03:22:25;7.22;;;4.00;;
9106;SDS011;4589;48.690;8.952;2023-02-21T03:24:54;5.90;;;3.73;;
9106;SDS011;4589;48.690;8.952;2023-02-21T03:27:22;6.00;;;4.20;;
9106;SDS011;4589;48.690;8.952;2023-02-21T03:29:48;14.13;;;8.18;;
9106;SDS011;4589;48.690;8.952;2023-02-21T03:32:19;9.38;;;5.05;;
9106;SDS011;4589;48.690;8.952;2023-02-21T03:34:51;8.10;;;4.88;;
9106;SDS011;4589;48.690;8.952;2023-02-21T03:37:39;10.43;;;5.40;;
9106;SDS011;4589;48.690;8.952;2023-02-21T03:40:11;6.95;;;4.75;;
9106;SDS011;4589;48.690;8.952;2023-02-21T03:42:45;9.63;;;5.10;;
9106;SDS011;4589;48.690;8.952;2023-02-21T03:45:10;8.03;;;5.23;;
9106;SDS011;4589;48.690;8.952;2023-02-21T03:47:36;7.70;;;5.10;;
9106;SDS011;4589;48.690;8.952;2023-02-21T03:50:02;8.93;;;4.87;;
9106;SDS011;4589;48.690;8.952;2023-02-21T03:52:29;5.75;;;4.93;;
9106;SDS011;4589;48.690;8.952;2023-02-21T03:54:55;6.15;;;4.22;;
9106;SDS011;4589;48.690;8.952;2023-02-21T03:57:21;8.80;;;5.17;;
9106;SDS011;4589;48.690;8.952;2023-02-21T03:59:46;5.30;;;4.20;;
9106;SDS011;4589;48.690;8.952;2023-02-21T04:02:12;5.80;;;4.50;;
9106;SDS011;4589;48.690;8.952;2023-02-21T04:04:38;8.95;;;4.90;;
9106;SDS011;4589;48.690;8.952;2023-02-21T04:07:04;8.80;;;4.88;;
9106;SDS011;4589;48.690;8.952;2023-02-21T04:09:30;9.30;;;5.27;;
9106;SDS011;4589;48.690;8.952;2023-02-21T04:11:56;6.22;;;5.47;;
9106;SDS011;4589;48.690;8.952;2023-02-21T04:14:22;4.53;;;4.00;;
9106;SDS011;4589;48.690;8.952;2023-02-21T04:16:48;7.50;;;3.90;;
9106;SDS011;4589;48.690;8.952;2023-02-21T04:19:13;5.53;;;4.37;;
9106;SDS011;4589;48.690;8.952;2023-02-21T04:21:39;7.37;;;4.27;;
9106;SDS011;4589;48.690;8.952;2023-02-21T04:24:05;7.10;;;4.00;;
9106;SDS011;4589;48.690;8.952;2023-02-21T04:26:31;5.37;;;3.50;;
9106;SDS011;4589;48.690;8.952;2023-02-21T04:28:58;6.30;;;4.63;;
9106;SDS011;4589;48.690;8.952;2023-02-21T04:31:24;7.10;;;4.25;;
9106;SDS011;4589;48.690;8.952;2023-02-21T04:33:50;7.57;;;4.83;;
9106;SDS011;4589;48.690;8.952;2023-02-21T04:36:16;7.13;;;4.78;;
9106;SDS011;4589;48.690;8.952;2023-02-21T04:38:42;5.97;;;4.03;;
9106;SDS011;4589;48.690;8.952;2023-02-21T04:41:08;5.77;;;4.30;;
9106;SDS011;4589;48.690;8.952;2023-02-21T04:43:33;7.10;;;4.87;;
9106;SDS011;4589;48.690;8.952;2023-02-21T04:45:59;5.43;;;3.60;;
9106;SDS011;4589;48.690;8.952;2023-02-21T04:48:25;4.30;;;3.40;;
9106;SDS011;4589;48.690;8.952;2023-02-21T04:50:51;4.40;;;3.70;;
9106;SDS011;4589;48.690;8.952;2023-02-21T04:53:17;8.23;;;4.35;;
9106;SDS011;4589;48.690;8.952;2023-02-21T04:55:43;6.90;;;4.43;;
9106;SDS011;4589;48.690;8.952;2023-02-21T04:58:09;5.20;;;3.90;;
9106;SDS011;4589;48.690;8.952;2023-02-21T05:00:34;4.63;;;3.60;;
9106;SDS011;4589;48.690;8.952;2023-02-21T05:03:00;7.80;;;4.40;;
9106;SDS011;4589;48.690;8.952;2023-02-21T05:05:26;7.70;;;4.90;;
9106;SDS011;4589;48.690;8.952;2023-02-21T05:07:52;6.73;;;5.00;;
9106;SDS011;4589;48.690;8.952;2023-02-21T05:10:19;9.57;;;5.63;;
9106;SDS011;4589;48.690;8.952;2023-02-21T05:12:44;14.57;;;7.87;;
9106;SDS011;4589;48.690;8.952;2023-02-21T05:15:11;19.73;;;8.80;;
9106;SDS011;4589;48.690;8.952;2023-02-21T05:17:37;18.48;;;9.48;;
9106;SDS011;4589;48.690;8.952;2023-02-21T05:20:03;21.50;;;11.47;;
9106;SDS011;4589;48.690;8.952;2023-02-21T05:22:31;22.25;;;9.77;;
9106;SDS011;4589;48.690;8.952;2023-02-21T05:24:58;21.30;;;10.57;;
9106;SDS011;4589;48.690;8.952;2023-02-21T05:27:24;14.00;;;6.53;;
9106;SDS011;4589;48.690;8.952;2023-02-21T05:29:51;7.67;;;4.23;;
9106;SDS011;4589;48.690;8.952;2023-02-21T05:32:18;6.10;;;3.63;;
9106;SDS011;4589;48.690;8.952;2023-02-21T05:34:45;5.80;;;3.88;;
9106;SDS011;4589;48.690;8.952;2023-02-21T05:37:15;7.18;;;4.15;;
9106;SDS011;4589;48.690;8.952;2023-02-21T05:39:45;5.13;;;3.38;;
9106;SDS011;4589;48.690;8.952;2023-02-21T05:42:10;4.20;;;3.40;;
9106;SDS011;4589;48.690;8.952;2023-02-21T05:44:36;3.30;;;2.60;;
9106;SDS011;4589;48.690;8.952;2023-02-21T05:47:02;3.47;;;2.73;;
9106;SDS011;4589;48.690;8.952;2023-02-21T05:49:28;6.57;;;4.13;;
9106;SDS011;4589;48.690;8.952;2023-02-21T05:51:54;3.83;;;3.07;;
9106;SDS011;4589;48.690;8.952;2023-02-21T05:54:19;5.37;;;3.30;;
9106;SDS011;4589;48.690;8.952;2023-02-21T05:56:47;3.92;;;3.15;;
9106;SDS011;4589;48.690;8.952;2023-02-21T05:59:14;3.13;;;2.67;;
9106;SDS011;4589;48.690;8.952;2023-02-21T06:01:42;7.20;;;3.35;;
9106;SDS011;4589;48.690;8.952;2023-02-21T06:04:08;4.73;;;3.13;;
9106;SDS011;4589;48.690;8.952;2023-02-21T06:06:34;7.10;;;4.00;;
9106;SDS011;4589;48.690;8.952;2023-02-21T06:09:00;5.03;;;3.03;;
9106;SDS011;4589;48.690;8.952;2023-02-21T06:11:27;3.08;;;2.78;;
9106;SDS011;4589;48.690;8.952;2023-02-21T06:13:57;5.63;;;3.40;;
9106;SDS011;4589;48.690;8.952;2023-02-21T06:16:25;4.20;;;3.33;;
9106;SDS011;4589;48.690;8.952;2023-02-21T06:18:54;6.13;;;3.08;;
9106;SDS011;4589;48.690;8.952;2023-02-21T06:21:20;3.60;;;3.25;;
9106;SDS011;4589;48.690;8.952;2023-02-21T06:23:47;7.15;;;3.38;;
9106;SDS011;4589;48.690;8.952;2023-02-21T06:26:13;4.15;;;2.65;;
9106;SDS011;4589;48.690;8.952;2023-02-21T06:28:39;4.60;;;3.30;;
9106;SDS011;4589;48.690;8.952;2023-02-21T06:31:05;6.03;;;3.13;;
9106;SDS011;4589;48.690;8.952;2023-02-21T06:33:31;4.70;;;3.00;;
9106;SDS011;4589;48.690;8.952;2023-02-21T06:35:57;5.13;;;3.43;;
9106;SDS011;4589;48.690;8.952;2023-02-21T06:38:23;5.17;;;3.33;;
9106;SDS011;4589;48.690;8.952;2023-02-21T06:40:48;3.70;;;3.03;;
9106;SDS011;4589;48.690;8.952;2023-02-21T06:43:14;5.47;;;3.40;;
9106;SDS011;4589;48.690;8.952;2023-02-21T06:45:40;3.83;;;3.37;;
9106;SDS011;4589;48.690;8.952;2023-02-21T06:48:05;5.70;;;3.37;;
9106;SDS011;4589;48.690;8.952;2023-02-21T06:50:32;4.43;;;3.25;;
9106;SDS011;4589;48.690;8.952;2023-02-21T06:52:58;5.50;;;3.80;;
9106;SDS011;4589;48.690;8.952;2023-02-21T06:55:24;4.15;;;3.53;;
9106;SDS011;4589;48.690;8.952;2023-02-21T06:57:50;6.00;;;4.28;;
9106;SDS011;4589;48.690;8.952;2023-02-21T07:00:16;4.37;;;3.30;;
9106;SDS011;4589;48.690;8.952;2023-02-21T07:02:42;5.85;;;3.50;;
9106;SDS011;4589;48.690;8.952;2023-02-21T07:05:09;10.20;;;3.65;;
9106;SDS011;4589;48.690;8.952;2023-02-21T07:07:35;6.05;;;3.50;;
9106;SDS011;4589;48.690;8.952;2023-02-21T07:10:01;7.13;;;3.90;;
9106;SDS011;4589;48.690;8.952;2023-02-21T07:12:27;6.38;;;3.90;;
9106;SDS011;4589;48.690;8.952;2023-02-21T07:14:55;5.00;;;3.70;;
9106;SDS011;4589;48.690;8.952;2023-02-21T07:17:21;6.10;;;4.50;;
9106;SDS011;4589;48.690;8.952;2023-02-21T07:19:46;6.23;;;4.57;;
9106;SDS011;4589;48.690;8.952;2023-02-21T07:22:12;5.50;;;4.13;;
9106;SDS011;4589;48.690;8.952;2023-02-21T07:24:38;10.23;;;5.70;;
9106;SDS011;4589;48.690;8.952;2023-02-21T07:27:05;9.30;;;5.82;;
9106;SDS011;4589;48.690;8.952;2023-02-21T07:29:31;6.27;;;5.20;;
9106;SDS011;4589;48.690;8.952;2023-02-21T07:31:57;10.77;;;7.20;;
9106;SDS011;4589;48.690;8.952;2023-02-21T07:34:23;7.87;;;5.97;;
9106;SDS011;4589;48.690;8.952;2023-02-21T07:36:49;8.00;;;5.63;;
9106;SDS011;4589;48.690;8.952;2023-02-21T07:39:15;6.37;;;5.77;;
9106;SDS011;4589;48.690;8.952;2023-02-21T07:41:40;7.30;;;6.00;;
9106;SDS011;4589;48.690;8.952;2023-02-21T07:44:06;9.30;;;5.73;;
9106;SDS011;4589;48.690;8.952;2023-02-21T07:46:32;6.57;;;4.67;;
9106;SDS011;4589;48.690;8.952;2023-02-21T07:48:59;7.83;;;5.27;;
9106;SDS011;4589;48.690;8.952;2023-02-21T07:51:28;5.93;;;4.50;;
9106;SDS011;4589;48.690;8.952;2023-02-21T07:53:54;5.90;;;4.20;;
9106;SDS011;4589;48.690;8.952;2023-02-21T07:56:20;6.03;;;4.10;;
9106;SDS011;4589;48.690;8.952;2023-02-21T07:58:47;8.20;;;4.80;;
9106;SDS011;4589;48.690;8.952;2023-02-21T08:01:12;4.13;;;3.57;;
9106;SDS011;4589;48.690;8.952;2023-02-21T08:03:38;9.47;;;4.77;;
9106;SDS011;4589;48.690;8.952;2023-02-21T08:06:04;7.33;;;4.93;;
9106;SDS011;4589;48.690;8.952;2023-02-21T08:08:32;8.00;;;4.17;;
9106;SDS011;4589;48.690;8.952;2023-02-21T08:10:58;11.83;;;3.80;;
9106;SDS011;4589;48.690;8.952;2023-02-21T08:13:23;5.30;;;3.20;;
9106;SDS011;4589;48.690;8.952;2023-02-21T08:15:49;4.20;;;3.57;;
9106;SDS011;4589;48.690;8.952;2023-02-21T08:18:20;4.80;;;3.97;;
9106;SDS011;4589;48.690;8.952;2023-02-21T08:20:48;7.00;;;4.23;;
9106;SDS011;4589;48.690;8.952;2023-02-21T08:23:15;5.57;;;4.17;;
9106;SDS011;4589;48.690;8.952;2023-02-21T08:25:42;6.57;;;4.33;;
9106;SDS011;4589;48.690;8.952;2023-02-21T08:28:08;6.23;;;4.40;;
9106;SDS011;4589;48.690;8.952;2023-02-21T08:30:34;6.40;;;4.27;;
9106;SDS011;4589;48.690;8.952;2023-02-21T08:32:59;6.47;;;4.13;;
9106;SDS011;4589;48.690;8.952;2023-02-21T08:35:25;5.87;;;3.97;;
9106;SDS011;4589;48.690;8.952;2023-02-21T08:37:51;5.27;;;4.00;;
9106;SDS011;4589;48.690;8.952;2023-02-21T08:40:21;6.70;;;4.00;;
9106;SDS011;4589;48.690;8.952;2023-02-21T08:42:51;4.67;;;4.17;;
9106;SDS011;4589;48.690;8.952;2023-02-21T08:45:18;4.83;;;4.30;;
9106;SDS011;4589;48.690;8.952;2023-02-21T08:47:45;8.80;;;5.20;;
9106;SDS011;4589;48.690;8.952;2023-02-21T08:50:11;6.67;;;4.33;;
9106;SDS011;4589;48.690;8.952;2023-02-21T08:52:38;7.30;;;4.27;;
9106;SDS011;4589;48.690;8.952;2023-02-21T08:55:04;7.70;;;4.80;;
9106;SDS011;4589;48.690;8.952;2023-02-21T08:57:31;6.83;;;4.00;;
9106;SDS011;4589;48.690;8.952;2023-02-21T08:59:58;5.00;;;4.07;;
9106;SDS011;4589;48.690;8.952;2023-02-21T09:02:24;5.97;;;3.60;;
9106;SDS011;4589;48.690;8.952;2023-02-21T09:04:52;4.20;;;3.80;;
9106;SDS011;4589;48.690;8.952;2023-02-21T09:07:19;9.10;;;4.60;;
9106;SDS011;4589;48.690;8.952;2023-02-21T09:09:46;6.97;;;3.90;;
9106;SDS011;4589;48.690;8.952;2023-02-21T09:12:12;6.67;;;4.30;;
9106;SDS011;4589;48.690;8.952;2023-02-21T09:14:38;5.67;;;3.70;;
9106;SDS011;4589;48.690;8.952;2023-02-21T09:17:06;4.27;;;3.33;;
9106;SDS011;4589;48.690;8.952;2023-02-21T09:19:33;6.50;;;3.73;;
9106;SDS011;4589;48.690;8.952;2023-02-21T09:21:59;8.53;;;4.47;;
9106;SDS011;4589;48.690;8.952;2023-02-21T09:24:28;11.03;;;4.37;;
9106;SDS011;4589;48.690;8.952;2023-02-21T09:26:54;5.80;;;3.30;;
9106;SDS011;4589;48.690;8.952;2023-02-21T09:29:27;4.80;;;3.27;;
9106;SDS011;4589;48.690;8.952;2023-02-21T09:31:53;4.20;;;3.20;;
9106;SDS011;4589;48.690;8.952;2023-02-21T09:34:19;5.80;;;3.67;;
9106;SDS011;4589;48.690;8.952;2023-02-21T09:36:46;8.17;;;3.10;;
9106;SDS011;4589;48.690;8.952;2023-02-21T09:39:12;3.60;;;3.13;;
9106;SDS011;4589;48.690;8.952;2023-02-21T09:41:39;3.30;;;3.00;;
9106;SDS011;4589;48.690;8.952;2023-02-21T09:44:09;7.10;;;3.07;;
9106;SDS011;4589;48.690;8.952;2023-02-21T09:46:47;4.93;;;3.40;;
9106;SDS011;4589;48.690;8.952;2023-02-21T09:51:51;4.70;;;3.20;;
9106;SDS011;4589;48.690;8.952;2023-02-21T09:54:39;6.80;;;3.63;;
9106;SDS011;4589;48.690;8.952;2023-02-21T09:57:05;5.40;;;3.43;;
9106;SDS011;4589;48.690;8.952;2023-02-21T09:59:37;4.20;;;2.90;;
9106;SDS011;4589;48.690;8.952;2023-02-21T10:10:16;3.80;;;2.50;;
9106;SDS011;4589;48.690;8.952;2023-02-21T10:15:35;9.40;;;2.37;;
9106;SDS011;4589;48.690;8.952;2023-02-21T10:21:15;5.10;;;2.90;;
9106;SDS011;4589;48.690;8.952;2023-02-21T10:24:04;3.53;;;2.60;;
9106;SDS011;4589;48.690;8.952;2023-02-21T10:26:37;4.00;;;2.70;;
9106;SDS011;4589;48.690;8.952;2023-02-21T10:29:10;3.33;;;1.90;;
9106;SDS011;4589;48.690;8.952;2023-02-21T10:31:45;3.10;;;2.20;;
9106;SDS011;4589;48.690;8.952;2023-02-21T10:34:45;4.10;;;2.10;;
9106;SDS011;4589;48.690;8.952;2023-02-21T10:37:23;2.30;;;2.10;;
9106;SDS011;4589;48.690;8.952;2023-02-21T10:39:53;2.13;;;1.77;;
9106;SDS011;4589;48.690;8.952;2023-02-21T10:42:42;3.50;;;1.90;;
9106;SDS011;4589;48.690;8.952;2023-02-21T10:45:13;4.13;;;1.70;;
9106;SDS011;4589;48.690;8.952;2023-02-21T10:50:49;2.83;;;1.50;;
9106;SDS011;4589;48.690;8.952;2023-02-21T10:53:28;3.40;;;1.50;;
9106;SDS011;4589;48.690;8.952;2023-02-21T10:56:05;2.00;;;1.57;;
9106;SDS011;4589;48.690;8.952;2023-02-21T10:58:47;1.50;;;1.30;;
9106;SDS011;4589;48.690;8.952;2023-02-21T11:04:03;1.57;;;1.27;;
9106;SDS011;4589;48.690;8.952;2023-02-21T11:12:04;1.40;;;1.10;;
9106;SDS011;4589;48.690;8.952;2023-02-21T11:14:40;2.10;;;1.30;;
9106;SDS011;4589;48.690;8.952;2023-02-21T11:17:12;3.37;;;1.20;;
9106;SDS011;4589;48.690;8.952;2023-02-21T11:22:23;2.33;;;1.13;;
9106;SDS011;4589;48.690;8.952;2023-02-21T11:25:07;2.60;;;1.37;;
9106;SDS011;4589;48.690;8.952;2023-02-21T11:28:00;2.50;;;1.20;;
9106;SDS011;4589;48.690;8.952;2023-02-21T11:30:31;1.40;;;1.10;;
9106;SDS011;4589;48.690;8.952;2023-02-21T11:33:00;1.10;;;0.90;;
9106;SDS011;4589;48.690;8.952;2023-02-21T11:35:27;1.97;;;1.20;;
9106;SDS011;4589;48.690;8.952;2023-02-21T11:38:33;2.17;;;1.10;;
9106;SDS011;4589;48.690;8.952;2023-02-21T11:41:14;2.47;;;1.07;;
9106;SDS011;4589;48.690;8.952;2023-02-21T11:43:45;1.60;;;1.00;;
9106;SDS011;4589;48.690;8.952;2023-02-21T11:52:02;1.17;;;0.90;;
9106;SDS011;4589;48.690;8.952;2023-02-21T11:54:29;2.43;;;1.30;;
9106;SDS011;4589;48.690;8.952;2023-02-21T11:56:58;1.60;;;1.00;;
9106;SDS011;4589;48.690;8.952;2023-02-21T12:08:22;1.00;;;0.90;;
9106;SDS011;4589;48.690;8.952;2023-02-21T12:19:26;1.10;;;0.90;;
9106;SDS011;4589;48.690;8.952;2023-02-21T12:27:18;3.23;;;1.13;;
9106;SDS011;4589;48.690;8.952;2023-02-21T12:35:30;1.87;;;1.13;;
9106;SDS011;4589;48.690;8.952;2023-02-21T12:51:06;3.63;;;1.20;;
9106;SDS011;4589;48.690;8.952;2023-02-21T12:53:54;2.20;;;1.30;;
9106;SDS011;4589;48.690;8.952;2023-02-21T12:56:32;2.63;;;1.27;;
9106;SDS011;4589;48.690;8.952;2023-02-21T12:59:17;3.37;;;1.30;;
9106;SDS011;4589;48.690;8.952;2023-02-21T13:01:49;1.20;;;1.00;;
9106;SDS011;4589;48.690;8.952;2023-02-21T13:04:43;1.40;;;1.30;;
9106;SDS011;4589;48.690;8.952;2023-02-21T13:07:12;1.47;;;1.00;;
9106;SDS011;4589;48.690;8.952;2023-02-21T13:12:25;1.60;;;1.07;;
9106;SDS011;4589;48.690;8.952;2023-02-21T13:20:37;8.10;;;1.30;;
9106;SDS011;4589;48.690;8.952;2023-02-21T13:23:08;2.30;;;1.17;;
9106;SDS011;4589;48.690;8.952;2023-02-21T13:26:24;2.50;;;1.30;;
9106;SDS011;4589;48.690;8.952;2023-02-21T13:29:00;6.43;;;1.43;;
9106;SDS011;4589;48.690;8.952;2023-02-21T13:31:27;1.60;;;1.20;;
9106;SDS011;4589;48.690;8.952;2023-02-21T13:34:04;1.77;;;1.17;;
9106;SDS011;4589;48.690;8.952;2023-02-21T13:41:33;3.40;;;1.30;;
9106;SDS011;4589;48.690;8.952;2023-02-21T13:47:29;1.60;;;1.10;;
9106;SDS011;4589;48.690;8.952;2023-02-21T13:56:10;1.50;;;1.20;;
9106;SDS011;4589;48.690;8.952;2023-02-21T13:58:39;1.30;;;1.10;;
9106;SDS011;4589;48.690;8.952;2023-02-21T14:01:13;1.07;;;0.90;;
9106;SDS011;4589;48.690;8.952;2023-02-21T14:03:47;4.47;;;1.03;;
9106;SDS011;4589;48.690;8.952;2023-02-21T14:06:30;1.30;;;1.17;;
9106;SDS011;4589;48.690;8.952;2023-02-21T14:09:19;1.30;;;1.10;;
9106;SDS011;4589;48.690;8.952;2023-02-21T14:11:49;1.83;;;1.00;;
9106;SDS011;4589;48.690;8.952;2023-02-21T14:14:30;1.60;;;1.50;;
9106;SDS011;4589;48.690;8.952;2023-02-21T14:17:02;1.67;;;1.00;;
9106;SDS011;4589;48.690;8.952;2023-02-21T14:19:31;2.40;;;1.90;;
9106;SDS011;4589;48.690;8.952;2023-02-21T14:22:14;3.23;;;1.27;;
9106;SDS011;4589;48.690;8.952;2023-02-21T14:24:45;1.10;;;0.90;;
9106;SDS011;4589;48.690;8.952;2023-02-21T14:29:43;1.70;;;1.03;;
9106;SDS011;4589;48.690;8.952;2023-02-21T14:35:25;1.20;;;0.90;;
9106;SDS011;4589;48.690;8.952;2023-02-21T14:59:29;1.53;;;1.00;;
9106;SDS011;4589;48.690;8.952;2023-02-21T15:04:53;1.67;;;1.10;;
9106;SDS011;4589;48.690;8.952;2023-02-21T15:07:32;1.30;;;0.90;;
9106;SDS011;4589;48.690;8.952;2023-02-21T15:12:44;1.97;;;1.30;;
9106;SDS011;4589;48.690;8.952;2023-02-21T15:15:14;1.73;;;1.10;;
9106;SDS011;4589;48.690;8.952;2023-02-21T15:17:41;4.40;;;1.90;;
9106;SDS011;4589;48.690;8.952;2023-02-21T15:20:16;5.10;;;2.17;;
9106;SDS011;4589;48.690;8.952;2023-02-21T15:22:42;2.60;;;1.10;;
9106;SDS011;4589;48.690;8.952;2023-02-21T15:27:35;1.60;;;1.30;;
9106;SDS011;4589;48.690;8.952;2023-02-21T15:30:04;3.30;;;1.47;;
9106;SDS011;4589;48.690;8.952;2023-02-21T15:32:40;2.63;;;1.30;;
9106;SDS011;4589;48.690;8.952;2023-02-21T15:35:07;7.60;;;1.30;;
9106;SDS011;4589;48.690;8.952;2023-02-21T15:37:38;2.17;;;1.40;;
9106;SDS011;4589;48.690;8.952;2023-02-21T15:40:07;3.43;;;1.60;;
9106;SDS011;4589;48.690;8.952;2023-02-21T15:42:44;2.80;;;1.00;;
9106;SDS011;4589;48.690;8.952;2023-02-21T15:45:15;1.23;;;1.10;;
9106;SDS011;4589;48.690;8.952;2023-02-21T15:47:46;2.10;;;1.20;;
9106;SDS011;4589;48.690;8.952;2023-02-21T15:50:16;4.10;;;1.50;;
9106;SDS011;4589;48.690;8.952;2023-02-21T15:52:43;3.10;;;1.20;;
9106;SDS011;4589;48.690;8.952;2023-02-21T16:00:30;2.17;;;1.10;;
9106;SDS011;4589;48.690;8.952;2023-02-21T16:11:24;3.10;;;2.00;;
9106;SDS011;4589;48.690;8.952;2023-02-21T16:13:50;5.37;;;3.60;;
9106;SDS011;4589;48.690;8.952;2023-02-21T16:16:16;6.67;;;4.13;;
9106;SDS011;4589;48.690;8.952;2023-02-21T16:18:42;8.50;;;3.40;;
9106;SDS011;4589;48.690;8.952;2023-02-21T16:21:20;9.47;;;3.30;;
9106;SDS011;4589;48.690;8.952;2023-02-21T16:23:52;6.90;;;3.83;;
9106;SDS011;4589;48.690;8.952;2023-02-21T16:26:22;4.23;;;2.87;;
9106;SDS011;4589;48.690;8.952;2023-02-21T16:28:53;4.30;;;2.87;;
9106;SDS011;4589;48.690;8.952;2023-02-21T16:34:00;10.00;;;3.53;;
9106;SDS011;4589;48.690;8.952;2023-02-21T16:36:30;2.60;;;2.40;;
9106;SDS011;4589;48.690;8.952;2023-02-21T16:38:57;7.83;;;2.97;;
9106;SDS011;4589;48.690;8.952;2023-02-21T16:41:23;6.70;;;2.93;;
9106;SDS011;4589;48.690;8.952;2023-02-21T16:43:49;4.20;;;2.70;;
9106;SDS011;4589;48.690;8.952;2023-02-21T16:46:15;6.50;;;2.77;;
9106;SDS011;4589;48.690;8.952;2023-02-21T16:48:47;4.53;;;2.60;;
9106;SDS011;4589;48.690;8.952;2023-02-21T16:51:13;4.17;;;2.50;;
9106;SDS011;4589;48.690;8.952;2023-02-21T16:53:39;3.63;;;2.53;;
9106;SDS011;4589;48.690;8.952;2023-02-21T16:56:05;4.77;;;2.50;;
9106;SDS011;4589;48.690;8.952;2023-02-21T16:58:32;7.43;;;3.40;;
9106;SDS011;4589;48.690;8.952;2023-02-21T17:01:05;8.37;;;4.80;;
9106;SDS011;4589;48.690;8.952;2023-02-21T17:03:39;7.60;;;4.43;;
9106;SDS011;4589;48.690;8.952;2023-02-21T17:06:05;6.57;;;3.83;;
9106;SDS011;4589;48.690;8.952;2023-02-21T17:08:31;8.07;;;4.77;;
9106;SDS011;4589;48.690;8.952;2023-02-21T17:10:57;9.73;;;4.30;;
9106;SDS011;4589;48.690;8.952;2023-02-21T17:13:23;12.93;;;4.17;;
9106;SDS011;4589;48.690;8.952;2023-02-21T17:15:49;5.77;;;4.00;;
9106;SDS011;4589;48.690;8.952;2023-02-21T17:18:15;6.87;;;4.50;;
9106;SDS011;4589;48.690;8.952;2023-02-21T17:20:41;10.27;;;4.77;;
9106;SDS011;4589;48.690;8.952;2023-02-21T17:23:07;8.93;;;4.93;;
9106;SDS011;4589;48.690;8.952;2023-02-21T17:25:32;5.97;;;3.60;;
9106;SDS011;4589;48.690;8.952;2023-02-21T17:28:00;6.13;;;3.70;;
9106;SDS011;4589;48.690;8.952;2023-02-21T17:30:26;8.77;;;3.80;;
9106;SDS011;4589;48.690;8.952;2023-02-21T17:32:51;8.97;;;4.33;;
9106;SDS011;4589;48.690;8.952;2023-02-21T17:35:18;5.10;;;3.70;;
9106;SDS011;4589;48.690;8.952;2023-02-21T17:37:46;4.83;;;4.40;;
9106;SDS011;4589;48.690;8.952;2023-02-21T17:40:13;8.90;;;5.00;;
9106;SDS011;4589;48.690;8.952;2023-02-21T17:42:40;10.60;;;6.13;;
9106;SDS011;4589;48.690;8.952;2023-02-21T17:45:06;13.73;;;6.43;;
9106;SDS011;4589;48.690;8.952;2023-02-21T17:47:32;11.03;;;6.07;;
9106;SDS011;4589;48.690;8.952;2023-02-21T17:49:59;9.40;;;5.70;;
9106;SDS011;4589;48.690;8.952;2023-02-21T17:52:25;12.00;;;7.97;;
9106;SDS011;4589;48.690;8.952;2023-02-21T17:54:51;8.73;;;5.30;;
9106;SDS011;4589;48.690;8.952;2023-02-21T17:57:17;6.70;;;4.67;;
9106;SDS011;4589;48.690;8.952;2023-02-21T17:59:43;8.63;;;4.53;;
9106;SDS011;4589;48.690;8.952;2023-02-21T18:02:09;9.20;;;5.10;;
9106;SDS011;4589;48.690;8.952;2023-02-21T18:04:35;14.60;;;4.80;;
9106;SDS011;4589;48.690;8.952;2023-02-21T18:07:01;11.50;;;6.53;;
9106;SDS011;4589;48.690;8.952;2023-02-21T18:09:27;14.57;;;7.97;;
9106;SDS011;4589;48.690;8.952;2023-02-21T18:11:54;10.37;;;7.00;;
9106;SDS011;4589;48.690;8.952;2023-02-21T18:14:23;18.60;;;8.80;;
9106;SDS011;4589;48.690;8.952;2023-02-21T18:16:50;16.03;;;9.47;;
9106;SDS011;4589;48.690;8.952;2023-02-21T18:19:16;21.30;;;11.60;;
9106;SDS011;4589;48.690;8.952;2023-02-21T18:21:44;20.70;;;11.17;;
9106;SDS011;4589;48.690;8.952;2023-02-21T18:24:10;18.40;;;9.63;;
9106;SDS011;4589;48.690;8.952;2023-02-21T18:26:37;16.17;;;10.20;;
9106;SDS011;4589;48.690;8.952;2023-02-21T18:29:03;18.00;;;11.77;;
9106;SDS011;4589;48.690;8.952;2023-02-21T18:31:30;13.70;;;10.50;;
9106;SDS011;4589;48.690;8.952;2023-02-21T18:33:56;17.13;;;10.30;;
9106;SDS011;4589;48.690;8.952;2023-02-21T18:36:21;15.30;;;9.30;;
9106;SDS011;4589;48.690;8.952;2023-02-21T18:38:47;13.77;;;10.30;;
9106;SDS011;4589;48.690;8.952;2023-02-21T18:41:14;15.80;;;9.67;;